Time;durP1;ratioP1;P1;durP2;ratioP2;P2;SDS_P1;SDS_P2;PMS_P1;PMS_P2;Temp;Humidity;BMP_temperature;BMP_pressure;BME280_temperature;BME280_humidity;BME280_pressure;Samples;Min_cycle;Max_cycle;Signal;HPM_P1;HPM_P2
2024/03/09 00:00:32;;;;;;;33.63;15.80;;;4.80;88.30;;;;;;5028028;28;21016;-59
2024/03/09 00:03:02;;;;;;;26.93;14.30;;;4.80;90.00;;;;;;5026538;28;20454;-60
2024/03/09 00:05:28;;;;;;;28.70;14.93;;;4.80;90.10;;;;;;5007153;28;20532;-58
2024/03/09 00:07:56;;;;;;;27.50;14.70;;;4.80;90.50;;;;;;5024795;28;20888;-57
2024/03/09 00:10:23;;;;;;;29.40;15.00;;;4.80;91.10;;;;;;5020329;28;20462;-57
2024/03/09 00:12:49;;;;;;;33.60;16.80;;;4.80;91.40;;;;;;5027428;28;20446;-61
2024/03/09 00:15:15;;;;;;;30.17;15.17;;;4.80;91.50;;;;;;5026156;28;20521;-60
2024/03/09 00:17:47;;;;;;;27.13;14.80;;;4.70;91.40;;;;;;5024961;28;20427;-60
2024/03/09 00:20:15;;;;;;;34.10;16.50;;;4.70;92.10;;;;;;5030220;28;21003;-61
2024/03/09 00:22:45;;;;;;;30.27;16.00;;;4.70;92.20;;;;;;5030238;28;20485;-60
2024/03/09 00:25:10;;;;;;;34.60;16.00;;;4.70;92.30;;;;;;5029905;28;20546;-61
2024/03/09 00:27:38;;;;;;;30.40;15.37;;;4.70;92.80;;;;;;5026101;28;20442;-60
2024/03/09 00:30:10;;;;;;;29.80;16.33;;;4.70;93.40;;;;;;5029200;28;20226;-61
2024/03/09 00:32:36;;;;;;;37.70;16.63;;;4.70;93.10;;;;;;5029347;28;20434;-61
2024/03/09 00:35:04;;;;;;;27.53;14.07;;;4.70;93.10;;;;;;5028716;28;20434;-61
2024/03/09 00:37:31;;;;;;;32.47;15.50;;;4.70;93.20;;;;;;5022081;28;20434;-60
2024/03/09 00:39:57;;;;;;;31.23;14.23;;;4.70;93.10;;;;;;5026840;28;20430;-60
2024/03/09 00:42:25;;;;;;;25.40;14.27;;;4.60;92.80;;;;;;5027896;28;20473;-60
2024/03/09 00:44:51;;;;;;;26.07;14.10;;;4.60;92.70;;;;;;5029085;28;20693;-60
2024/03/09 00:47:17;;;;;;;24.60;13.27;;;4.60;92.90;;;;;;5023713;28;20873;-61
2024/03/09 00:49:43;;;;;;;28.73;13.83;;;4.60;92.90;;;;;;5026137;28;20509;-61
2024/03/09 00:52:10;;;;;;;26.17;13.70;;;4.60;93.50;;;;;;5023813;28;20695;-62
2024/03/09 00:54:37;;;;;;;27.43;12.93;;;4.50;94.10;;;;;;5027900;28;20508;-60
2024/03/09 00:57:03;;;;;;;25.53;13.67;;;4.60;95.40;;;;;;5027362;28;20480;-61
2024/03/09 00:59:30;;;;;;;25.67;13.37;;;4.60;95.90;;;;;;5028489;28;20509;-61
2024/03/09 01:01:56;;;;;;;28.73;13.90;;;4.50;96.00;;;;;;5028154;28;20443;-60
2024/03/09 01:04:24;;;;;;;25.67;14.13;;;4.50;96.40;;;;;;5026914;28;20429;-60
2024/03/09 01:06:49;;;;;;;27.73;13.47;;;4.50;96.40;;;;;;5027657;28;20446;-61
2024/03/09 01:09:15;;;;;;;28.50;13.23;;;4.50;96.70;;;;;;5023443;28;20450;-60
2024/03/09 01:11:41;;;;;;;25.10;12.73;;;4.50;96.30;;;;;;5024963;28;21214;-60
2024/03/09 01:14:07;;;;;;;24.47;13.20;;;4.40;97.50;;;;;;5032045;28;20270;-60
2024/03/09 01:16:33;;;;;;;28.23;13.23;;;4.40;97.60;;;;;;5023458;28;20250;-60
2024/03/09 01:18:58;;;;;;;22.97;13.10;;;4.40;97.40;;;;;;5023416;28;20506;-61
2024/03/09 01:21:24;;;;;;;24.03;14.20;;;4.40;97.30;;;;;;5021730;28;20283;-61
2024/03/09 01:23:50;;;;;;;29.50;14.50;;;4.40;97.50;;;;;;5009065;28;20183;-60
2024/03/09 01:26:15;;;;;;;26.30;14.07;;;4.40;97.70;;;;;;5023216;28;20214;-61
2024/03/09 01:28:41;;;;;;;33.87;15.13;;;4.40;98.30;;;;;;5026231;28;20176;-62
2024/03/09 01:31:10;;;;;;;27.00;13.20;;;4.40;98.40;;;;;;5027052;28;20255;-60
2024/03/09 01:33:36;;;;;;;34.43;15.87;;;4.40;98.30;;;;;;5009033;28;20189;-61
2024/03/09 01:36:02;;;;;;;27.40;13.80;;;4.40;99.10;;;;;;5026203;28;20502;-60
2024/03/09 01:38:28;;;;;;;26.10;13.83;;;4.40;99.60;;;;;;5027022;28;20506;-61
2024/03/09 01:40:53;;;;;;;27.73;13.60;;;4.40;99.50;;;;;;5026987;28;20940;-59
2024/03/09 01:43:20;;;;;;;24.07;13.17;;;4.40;99.60;;;;;;5022903;28;20208;-60
2024/03/09 01:45:46;;;;;;;26.83;12.90;;;4.40;99.40;;;;;;5006944;28;20199;-60
2024/03/09 01:48:13;;;;;;;24.90;13.00;;;4.30;99.50;;;;;;5026200;28;20427;-61
2024/03/09 01:50:40;;;;;;;28.70;14.23;;;4.30;99.80;;;;;;5024456;28;20410;-60
2024/03/09 01:53:07;;;;;;;28.50;14.50;;;4.30;99.90;;;;;;5026937;28;20925;-60
2024/03/09 01:55:35;;;;;;;26.90;14.03;;;4.30;99.90;;;;;;5024484;28;20453;-61
2024/03/09 01:58:03;;;;;;;27.13;14.97;;;4.30;99.90;;;;;;5025695;28;20453;-60
2024/03/09 02:00:30;;;;;;;24.33;13.20;;;4.30;99.90;;;;;;5027683;28;20423;-61
2024/03/09 02:02:56;;;;;;;30.70;15.83;;;4.20;99.90;;;;;;5029042;28;21041;-61
2024/03/09 02:05:24;;;;;;;30.73;14.80;;;4.20;99.90;;;;;;5026124;28;20458;-61
2024/03/09 02:07:50;;;;;;;27.83;14.40;;;4.20;99.90;;;;;;5022580;28;20449;-60
2024/03/09 02:10:18;;;;;;;29.70;15.57;;;4.20;99.90;;;;;;5023640;28;20434;-61
2024/03/09 02:12:44;;;;;;;28.57;14.20;;;4.20;99.90;;;;;;5024021;28;20176;-61
2024/03/09 02:15:16;;;;;;;34.07;15.63;;;4.20;99.90;;;;;;5027003;28;20776;-61
2024/03/09 02:17:42;;;;;;;33.63;15.73;;;4.20;99.90;;;;;;5008683;28;20415;-61
2024/03/09 02:20:11;;;;;;;29.23;14.90;;;4.20;99.90;;;;;;5031275;28;20418;-61
2024/03/09 02:22:39;;;;;;;28.00;14.37;;;4.10;99.90;;;;;;5027612;28;20540;-60
2024/03/09 02:25:05;;;;;;;32.27;15.77;;;4.10;99.90;;;;;;5025602;28;20465;-61
2024/03/09 02:27:31;;;;;;;29.03;14.60;;;4.10;99.90;;;;;;5025575;28;20438;-60
2024/03/09 02:29:57;;;;;;;31.40;15.00;;;4.00;99.90;;;;;;5023657;28;20921;-60
2024/03/09 02:32:23;;;;;;;27.80;14.33;;;4.00;99.90;;;;;;5007107;28;20484;-61
2024/03/09 02:34:48;;;;;;;27.33;14.40;;;4.00;99.90;;;;;;5025847;28;20192;-60
2024/03/09 02:37:15;;;;;;;31.00;14.90;;;3.90;99.90;;;;;;5022862;28;20180;-60
2024/03/09 02:39:41;;;;;;;29.77;15.60;;;3.90;99.90;;;;;;5031293;28;20255;-61
2024/03/09 02:42:08;;;;;;;32.20;15.53;;;3.90;99.90;;;;;;5031023;28;20457;-61
2024/03/09 02:44:34;;;;;;;29.40;15.20;;;3.90;99.90;;;;;;5032336;28;20450;-61
2024/03/09 02:47:00;;;;;;;31.57;15.03;;;3.90;99.90;;;;;;5021378;28;20492;-61
2024/03/09 02:49:26;;;;;;;34.80;15.77;;;3.90;99.90;;;;;;5023940;28;20929;-62
2024/03/09 02:51:53;;;;;;;32.67;16.67;;;3.90;99.90;;;;;;5027371;28;20201;-59
2024/03/09 02:54:19;;;;;;;33.40;16.90;;;3.90;99.90;;;;;;5027296;28;20200;-60
2024/03/09 02:56:46;;;;;;;26.97;14.67;;;3.90;99.90;;;;;;5022981;28;20427;-60
2024/03/09 02:59:12;;;;;;;29.60;15.20;;;3.90;99.90;;;;;;5025732;28;20581;-62
2024/03/09 03:01:37;;;;;;;32.43;14.90;;;3.90;99.90;;;;;;5025147;28;20426;-60
2024/03/09 03:04:03;;;;;;;32.10;15.30;;;3.80;99.90;;;;;;5028417;28;20198;-61
2024/03/09 03:06:31;;;;;;;34.13;15.67;;;3.90;99.90;;;;;;5029008;28;20561;-61
2024/03/09 03:09:05;;;;;;;35.53;16.13;;;3.80;99.90;;;;;;5025271;28;20178;-59
2024/03/09 03:11:32;;;;;;;30.73;15.97;;;3.80;99.90;;;;;;5029848;28;20420;-62
2024/03/09 03:13:59;;;;;;;26.10;14.23;;;3.80;99.90;;;;;;5028853;28;20446;-60
2024/03/09 03:16:37;;;;;;;32.23;14.83;;;3.80;99.90;;;;;;5024759;28;20433;-60
2024/03/09 03:19:09;;;;;;;25.30;14.37;;;3.70;99.90;;;;;;5023085;28;20511;-60
2024/03/09 03:21:35;;;;;;;24.47;14.20;;;3.70;99.90;;;;;;5025956;28;20426;-60
2024/03/09 03:24:02;;;;;;;27.87;14.87;;;3.70;99.90;;;;;;5030023;28;20468;-60
2024/03/09 03:26:30;;;;;;;27.87;14.83;;;3.70;99.90;;;;;;5026062;28;20409;-60
2024/03/09 03:28:56;;;;;;;30.53;15.97;;;3.60;99.90;;;;;;5028568;28;20431;-60
2024/03/09 03:31:22;;;;;;;30.80;14.83;;;3.60;99.90;;;;;;5031285;28;20426;-61
2024/03/09 03:33:49;;;;;;;30.50;15.83;;;3.50;99.90;;;;;;5011872;28;20452;-61
2024/03/09 03:36:19;;;;;;;26.40;14.43;;;3.50;99.90;;;;;;5029218;28;20805;-60
2024/03/09 03:38:46;;;;;;;33.33;15.93;;;3.50;99.90;;;;;;5026584;28;20545;-61
2024/03/09 03:41:14;;;;;;;32.57;15.33;;;3.50;99.90;;;;;;5026121;28;20438;-61
2024/03/09 03:43:42;;;;;;;33.20;15.33;;;3.50;99.90;;;;;;5028686;28;20458;-61
2024/03/09 03:46:09;;;;;;;26.30;13.83;;;3.40;99.90;;;;;;5028109;28;20414;-60
2024/03/09 03:48:35;;;;;;;31.07;16.17;;;3.40;99.90;;;;;;5026756;28;20469;-60
2024/03/09 03:51:01;;;;;;;33.30;15.83;;;3.40;99.90;;;;;;5027825;28;20460;-60
2024/03/09 03:53:28;;;;;;;31.43;15.63;;;3.40;99.90;;;;;;5027060;28;20433;-60
2024/03/09 03:55:54;;;;;;;31.07;16.40;;;3.30;99.90;;;;;;5029117;28;20438;-60
2024/03/09 03:58:23;;;;;;;31.33;15.57;;;3.30;99.90;;;;;;5026200;28;20423;-61
2024/03/09 04:00:49;;;;;;;29.47;14.97;;;3.30;99.90;;;;;;5028926;28;20796;-60
2024/03/09 04:03:20;;;;;;;33.10;15.03;;;3.20;99.90;;;;;;5010315;28;20525;-60
2024/03/09 04:05:48;;;;;;;31.73;14.50;;;3.20;99.90;;;;;;5012206;28;20443;-62
2024/03/09 04:08:14;;;;;;;31.00;14.83;;;3.20;99.90;;;;;;5012133;28;20429;-60
2024/03/09 04:10:43;;;;;;;30.80;15.70;;;3.10;99.90;;;;;;5031406;28;20429;-61
2024/03/09 04:13:09;;;;;;;31.70;17.20;;;3.00;99.90;;;;;;5021822;28;21117;-60
2024/03/09 04:15:34;;;;;;;32.30;16.20;;;3.00;99.90;;;;;;5029062;28;21026;-61
2024/03/09 04:18:02;;;;;;;29.10;15.20;;;2.90;99.90;;;;;;5029027;28;20530;-61
2024/03/09 04:20:33;;;;;;;31.57;15.80;;;2.90;99.90;;;;;;5022399;28;20187;-60
2024/03/09 04:23:07;;;;;;;28.40;15.00;;;2.90;99.90;;;;;;5022132;28;20458;-60
2024/03/09 04:25:35;;;;;;;26.03;14.50;;;2.80;99.90;;;;;;5004143;28;21129;-61
2024/03/09 04:28:07;;;;;;;28.10;15.17;;;2.80;99.90;;;;;;5051314;22;20558;-57
2024/03/09 04:30:33;;;;;;;27.70;15.20;;;2.70;99.90;;;;;;5021166;28;20484;-57
2024/03/09 04:33:04;;;;;;;34.57;15.10;;;2.70;99.90;;;;;;5029187;28;20421;-56
2024/03/09 04:35:31;;;;;;;33.30;16.37;;;2.60;99.90;;;;;;5027868;28;20430;-55
2024/03/09 04:37:57;;;;;;;32.43;16.10;;;2.60;99.90;;;;;;5027089;28;20922;-57
2024/03/09 04:40:23;;;;;;;35.93;17.40;;;2.60;99.90;;;;;;5027195;28;20455;-57
2024/03/09 04:42:49;;;;;;;30.00;15.87;;;2.50;99.90;;;;;;5023874;28;20467;-55
2024/03/09 04:45:22;;;;;;;26.60;13.73;;;2.50;99.90;;;;;;5030009;28;21119;-56
2024/03/09 04:47:48;;;;;;;30.30;15.47;;;2.50;99.90;;;;;;5029147;28;20450;-56
2024/03/09 04:50:19;;;;;;;33.73;16.37;;;2.40;99.90;;;;;;5025759;28;20419;-56
2024/03/09 04:52:48;;;;;;;33.10;16.10;;;2.40;99.90;;;;;;5028351;28;20926;-55
2024/03/09 04:55:18;;;;;;;31.80;15.60;;;2.30;99.90;;;;;;5024125;28;20957;-57
2024/03/09 04:57:44;;;;;;;35.10;16.87;;;2.30;99.90;;;;;;5016244;28;20510;-56
2024/03/09 05:00:16;;;;;;;29.60;14.97;;;2.30;99.90;;;;;;5027683;28;20501;-55
2024/03/09 05:02:47;;;;;;;35.50;16.50;;;2.20;99.90;;;;;;5023949;28;20515;-55
2024/03/09 05:05:14;;;;;;;30.00;15.17;;;2.20;99.90;;;;;;5027097;28;20427;-56
2024/03/09 05:07:43;;;;;;;34.00;14.73;;;2.20;99.90;;;;;;5025015;28;20427;-55
2024/03/09 05:10:10;;;;;;;35.43;15.57;;;2.20;99.90;;;;;;5026432;28;20831;-54
2024/03/09 05:12:36;;;;;;;31.00;15.40;;;2.10;99.90;;;;;;5026275;28;20518;-56
2024/03/09 05:15:02;;;;;;;30.90;15.67;;;2.10;99.90;;;;;;5021305;28;20426;-54
2024/03/09 05:17:28;;;;;;;33.10;15.37;;;2.10;99.90;;;;;;5017935;28;20461;-56
2024/03/09 05:19:53;;;;;;;30.30;15.60;;;2.00;99.90;;;;;;5028171;28;20427;-56
2024/03/09 05:22:19;;;;;;;40.20;16.00;;;2.00;99.90;;;;;;5027069;28;20219;-55
2024/03/09 05:24:46;;;;;;;34.90;16.30;;;2.00;99.90;;;;;;5025810;28;20206;-56
2024/03/09 05:27:11;;;;;;;38.23;15.30;;;1.90;99.90;;;;;;5024896;28;20220;-55
2024/03/09 05:29:37;;;;;;;37.00;16.47;;;1.90;99.90;;;;;;5026121;28;20488;-56
2024/03/09 05:32:03;;;;;;;36.57;16.37;;;1.80;99.90;;;;;;5025062;28;20184;-57
2024/03/09 05:34:28;;;;;;;35.53;17.50;;;1.80;99.90;;;;;;5025849;28;20180;-56
2024/03/09 05:36:55;;;;;;;39.00;18.60;;;1.80;99.90;;;;;;5025737;28;20214;-56
2024/03/09 05:39:21;;;;;;;34.07;16.57;;;1.80;99.90;;;;;;5003120;28;20638;-55
2024/03/09 05:41:49;;;;;;;31.93;16.17;;;1.70;99.90;;;;;;5026442;28;20414;-57
2024/03/09 05:44:15;;;;;;;38.77;16.87;;;1.70;99.90;;;;;;5021717;28;20419;-56
2024/03/09 05:46:41;;;;;;;33.97;16.20;;;1.70;99.90;;;;;;5025011;28;20471;-56
2024/03/09 05:49:08;;;;;;;43.20;16.73;;;1.70;99.90;;;;;;5019348;28;20176;-57
2024/03/09 05:51:34;;;;;;;38.80;18.00;;;1.70;99.90;;;;;;5025271;28;20669;-55
2024/03/09 05:53:59;;;;;;;39.40;17.40;;;1.60;99.90;;;;;;5025679;28;20418;-55
2024/03/09 05:56:25;;;;;;;33.60;16.50;;;1.60;99.90;;;;;;5026386;28;20172;-56
2024/03/09 05:58:50;;;;;;;38.70;18.37;;;1.60;99.90;;;;;;5020762;28;20254;-55
2024/03/09 06:01:16;;;;;;;36.33;16.23;;;1.60;99.90;;;;;;5022959;28;20184;-56
2024/03/09 06:03:42;;;;;;;35.10;16.17;;;1.60;99.90;;;;;;5029890;28;20272;-56
2024/03/09 06:06:09;;;;;;;36.33;17.20;;;1.60;99.90;;;;;;5025310;28;20175;-56
2024/03/09 06:08:34;;;;;;;33.20;16.80;;;1.60;99.90;;;;;;5025167;28;20446;-56
2024/03/09 06:11:02;;;;;;;37.70;18.00;;;1.60;99.90;;;;;;5022475;28;20435;-57
2024/03/09 06:13:30;;;;;;;40.30;17.67;;;1.50;99.90;;;;;;5023190;28;20689;-56
2024/03/09 06:15:55;;;;;;;36.60;17.73;;;1.50;99.90;;;;;;5027317;28;20441;-56
2024/03/09 06:18:23;;;;;;;34.53;17.10;;;1.50;99.90;;;;;;5028867;28;20460;-56
2024/03/09 06:20:48;;;;;;;42.33;19.03;;;1.50;99.90;;;;;;5027955;28;20201;-56
2024/03/09 06:23:14;;;;;;;48.83;18.53;;;1.40;99.90;;;;;;5024842;28;20486;-55
2024/03/09 06:25:41;;;;;;;42.33;18.37;;;1.40;99.90;;;;;;5023777;28;20664;-56
2024/03/09 06:28:08;;;;;;;40.90;19.03;;;1.40;99.90;;;;;;5022776;28;20442;-56
2024/03/09 06:30:36;;;;;;;39.50;19.20;;;1.40;99.90;;;;;;5026609;28;20429;-56
2024/03/09 06:33:02;;;;;;;39.50;18.00;;;1.40;99.90;;;;;;5025405;28;20423;-55
2024/03/09 06:35:28;;;;;;;40.23;16.37;;;1.40;99.90;;;;;;5026212;28;20501;-56
2024/03/09 06:38:05;;;;;;;37.70;17.00;;;1.40;99.90;;;;;;5025539;28;20522;-56
2024/03/09 06:40:33;;;;;;;36.33;18.37;;;1.40;99.90;;;;;;5023908;28;20260;-57
2024/03/09 06:43:00;;;;;;;37.57;17.77;;;1.40;99.90;;;;;;5027261;28;20512;-56
2024/03/09 06:45:27;;;;;;;34.37;17.20;;;1.40;99.90;;;;;;5021055;28;20517;-56
2024/03/09 06:48:00;;;;;;;40.23;18.40;;;1.50;99.90;;;;;;5034293;28;20525;-57
2024/03/09 06:50:28;;;;;;;36.20;16.83;;;1.50;99.90;;;;;;5023287;28;21081;-56
2024/03/09 06:52:54;;;;;;;35.97;16.83;;;1.60;99.90;;;;;;5024493;28;20494;-55
2024/03/09 06:55:24;;;;;;;33.43;17.07;;;1.60;99.90;;;;;;5024103;28;20502;-55
2024/03/09 06:57:51;;;;;;;44.23;18.43;;;1.70;99.90;;;;;;5020785;28;20200;-55
2024/03/09 07:00:17;;;;;;;44.00;17.90;;;1.70;99.90;;;;;;5023548;28;20458;-56
2024/03/09 07:02:43;;;;;;;46.57;19.70;;;1.70;99.90;;;;;;5027927;28;20489;-57
2024/03/09 07:05:10;;;;;;;40.20;18.33;;;1.70;99.90;;;;;;5022384;28;20450;-57
2024/03/09 07:07:40;;;;;;;41.83;19.17;;;1.90;99.90;;;;;;5021289;28;20529;-55
2024/03/09 07:10:09;;;;;;;41.10;19.57;;;2.00;99.90;;;;;;5021883;28;20511;-56
2024/03/09 07:12:41;;;;;;;41.37;20.27;;;2.10;99.90;;;;;;5021062;28;21000;-56
2024/03/09 07:15:22;;;;;;;39.57;18.60;;;2.20;99.90;;;;;;5024849;28;20941;-55
2024/03/09 07:17:49;;;;;;;36.27;17.03;;;2.20;99.90;;;;;;5022289;28;20453;-55
2024/03/09 07:20:17;;;;;;;44.30;20.20;;;2.40;99.90;;;;;;5021676;28;20933;-55
2024/03/09 07:22:45;;;;;;;34.63;16.93;;;2.40;99.90;;;;;;5026069;28;20471;-56
2024/03/09 07:25:14;;;;;;;40.43;18.67;;;2.50;99.90;;;;;;5025858;28;21020;-56
2024/03/09 07:27:41;;;;;;;40.90;17.63;;;2.50;99.90;;;;;;5022624;28;20458;-57
2024/03/09 07:30:11;;;;;;;37.97;18.37;;;2.60;99.90;;;;;;5026518;28;20909;-57
2024/03/09 07:32:38;;;;;;;43.53;18.07;;;2.60;99.90;;;;;;5023139;28;20426;-56
2024/03/09 07:35:16;;;;;;;37.13;17.13;;;2.70;99.90;;;;;;5024230;28;20433;-57
2024/03/09 07:37:42;;;;;;;56.03;24.90;;;2.70;99.90;;;;;;5024858;28;20847;-56
2024/03/09 07:40:13;;;;;;;42.70;19.80;;;2.80;99.90;;;;;;5025688;28;20434;-55
2024/03/09 07:42:38;;;;;;;38.43;18.33;;;2.90;99.90;;;;;;5026972;28;20462;-56
2024/03/09 07:45:13;;;;;;;47.30;19.30;;;3.00;99.90;;;;;;5028056;28;21175;-56
2024/03/09 07:47:41;;;;;;;42.77;19.93;;;3.10;99.90;;;;;;5025422;28;20202;-57
2024/03/09 07:50:14;;;;;;;35.30;18.93;;;3.10;99.90;;;;;;5026688;28;20495;-56
2024/03/09 07:52:47;;;;;;;35.50;18.03;;;3.20;99.90;;;;;;5025042;28;20454;-55
2024/03/09 07:55:16;;;;;;;39.30;18.03;;;3.20;99.90;;;;;;5027608;28;20416;-56
2024/03/09 07:57:45;;;;;;;43.57;18.20;;;3.20;99.90;;;;;;5028538;28;20461;-55
2024/03/09 08:00:57;;;;;;;39.40;18.67;;;3.20;99.90;;;;;;5032186;28;20457;-57
2024/03/09 08:02:59;;;;;;;39.33;18.30;;;3.20;99.90;;;;;;5013482;28;20457;-56
2024/03/09 08:05:26;;;;;;;38.23;18.27;;;3.20;99.90;;;;;;5023448;28;20568;-57
2024/03/09 08:07:52;;;;;;;36.10;18.33;;;3.20;99.90;;;;;;5020882;28;20446;-57
2024/03/09 08:10:23;;;;;;;36.00;18.17;;;3.20;99.90;;;;;;5022193;28;20433;-57
2024/03/09 08:12:49;;;;;;;42.20;19.73;;;3.30;99.90;;;;;;5024486;28;20439;-57
2024/03/09 08:15:16;;;;;;;38.50;17.80;;;3.50;99.90;;;;;;5022403;28;20465;-58
2024/03/09 08:17:48;;;;;;;37.30;19.83;;;3.60;99.90;;;;;;5022173;28;20508;-58
2024/03/09 08:20:15;;;;;;;31.37;16.17;;;3.70;99.90;;;;;;5023090;28;20446;-58
2024/03/09 08:22:42;;;;;;;37.73;17.97;;;3.80;99.90;;;;;;5025072;28;20516;-57
2024/03/09 08:25:11;;;;;;;34.33;16.03;;;4.00;99.90;;;;;;5023509;28;20456;-56
2024/03/09 08:27:38;;;;;;;38.93;17.70;;;4.20;99.90;;;;;;5022805;28;20459;-56
2024/03/09 08:30:05;;;;;;;32.40;16.43;;;4.30;99.90;;;;;;5028424;28;20800;-57
2024/03/09 08:32:32;;;;;;;33.70;17.60;;;4.40;99.90;;;;;;5013622;28;20477;-57
2024/03/09 08:34:58;;;;;;;35.40;17.20;;;4.60;99.90;;;;;;5029059;28;20889;-57
2024/03/09 08:37:25;;;;;;;33.10;17.67;;;4.70;99.90;;;;;;5022171;28;21234;-56
2024/03/09 08:39:51;;;;;;;32.67;16.90;;;4.90;99.90;;;;;;5026614;28;20187;-57
2024/03/09 08:42:18;;;;;;;32.27;17.33;;;5.00;99.90;;;;;;5021998;28;21172;-56
2024/03/09 08:44:44;;;;;;;33.80;18.17;;;5.10;98.90;;;;;;5035840;28;20500;-61
2024/03/09 08:47:10;;;;;;;36.77;18.07;;;5.30;99.50;;;;;;5022815;28;20458;-57
2024/03/09 08:49:35;;;;;;;33.83;17.40;;;5.40;98.30;;;;;;5023505;28;20431;-56
2024/03/09 08:52:02;;;;;;;31.30;16.47;;;5.60;97.10;;;;;;5022822;28;20752;-54
2024/03/09 08:54:31;;;;;;;33.87;16.63;;;5.70;94.50;;;;;;5028551;28;20196;-56
2024/03/09 08:56:57;;;;;;;29.90;16.43;;;5.90;92.60;;;;;;5014354;28;20549;-52
2024/03/09 08:59:23;;;;;;;37.27;16.03;;;6.00;92.00;;;;;;5022126;28;20513;-56
2024/03/09 09:01:49;;;;;;;31.43;16.10;;;6.20;91.50;;;;;;5022114;28;20294;-56
2024/03/09 09:04:15;;;;;;;28.43;15.13;;;6.30;90.90;;;;;;5022927;28;20249;-56
2024/03/09 09:06:41;;;;;;;31.20;15.50;;;6.40;88.50;;;;;;5024775;28;20176;-61
2024/03/09 09:09:16;;;;;;;27.83;14.50;;;6.60;88.30;;;;;;5025970;28;20426;-57
2024/03/09 09:11:42;;;;;;;27.30;14.83;;;6.80;85.60;;;;;;5020198;28;20269;-54
2024/03/09 09:14:08;;;;;;;38.70;15.50;;;6.90;84.50;;;;;;5019912;28;21079;-55
2024/03/09 09:16:33;;;;;;;27.37;14.40;;;7.10;83.20;;;;;;5020347;28;21342;-56
2024/03/09 09:18:59;;;;;;;35.83;15.00;;;7.30;81.80;;;;;;5027759;28;20232;-55
2024/03/09 09:21:24;;;;;;;30.77;13.70;;;7.40;78.70;;;;;;5024842;28;20212;-56
2024/03/09 09:23:50;;;;;;;28.87;12.67;;;7.50;77.70;;;;;;5026669;28;20546;-57
2024/03/09 09:26:16;;;;;;;24.77;13.27;;;7.60;76.20;;;;;;5024415;28;20175;-56
2024/03/09 09:28:41;;;;;;;25.90;13.83;;;7.80;74.70;;;;;;5023497;28;20222;-56
2024/03/09 09:31:07;;;;;;;24.07;13.67;;;7.90;74.00;;;;;;5026045;28;20270;-57
2024/03/09 09:33:33;;;;;;;25.80;13.47;;;8.00;73.70;;;;;;5023484;28;20298;-56
2024/03/09 09:35:58;;;;;;;24.13;11.73;;;8.10;72.50;;;;;;5027380;28;20191;-56
2024/03/09 09:38:26;;;;;;;23.83;12.20;;;8.40;72.20;;;;;;5021162;28;20860;-57
2024/03/09 09:40:57;;;;;;;24.90;11.77;;;8.50;70.90;;;;;;5025236;28;20844;-57
2024/03/09 09:43:27;;;;;;;22.03;12.40;;;8.70;70.10;;;;;;5025690;28;20442;-58
2024/03/09 09:45:57;;;;;;;21.10;11.27;;;8.90;69.90;;;;;;5023716;28;20532;-59
2024/03/09 09:48:26;;;;;;;19.03;11.53;;;9.00;68.20;;;;;;5025925;28;20465;-57
2024/03/09 09:50:52;;;;;;;19.00;9.87;;;9.20;66.80;;;;;;5024866;28;20413;-58
2024/03/09 09:53:21;;;;;;;18.00;10.57;;;9.30;65.80;;;;;;5023892;28;20418;-56
2024/03/09 09:55:47;;;;;;;20.77;12.30;;;9.50;65.10;;;;;;5024868;28;20415;-57
2024/03/09 09:58:16;;;;;;;13.97;8.10;;;9.60;64.60;;;;;;5024244;28;21007;-57
2024/03/09 10:00:41;;;;;;;12.90;7.63;;;9.70;63.30;;;;;;5024661;28;20192;-57
2024/03/09 10:03:07;;;;;;;17.30;6.87;;;9.90;61.40;;;;;;5028761;28;20458;-57
2024/03/09 10:05:33;;;;;;;15.23;8.40;;;9.90;60.60;;;;;;5001772;28;20616;-57
2024/03/09 10:08:09;;;;;;;11.13;7.10;;;10.00;58.90;;;;;;5025605;28;20200;-58
2024/03/09 10:10:41;;;;;;;11.77;6.60;;;10.10;58.40;;;;;;5024002;28;20795;-57
2024/03/09 10:13:08;;;;;;;13.10;7.47;;;10.20;56.90;;;;;;5023928;28;20414;-55
2024/03/09 10:15:35;;;;;;;10.60;6.67;;;10.30;56.20;;;;;;5030789;28;20788;-57
2024/03/09 10:18:02;;;;;;;12.80;6.50;;;10.30;56.20;;;;;;5029469;28;20422;-57
2024/03/09 10:20:29;;;;;;;10.73;6.23;;;10.40;56.40;;;;;;5022369;28;20469;-57
2024/03/09 10:22:57;;;;;;;11.13;7.03;;;10.60;56.00;;;;;;5022466;28;20446;-57
2024/03/09 10:25:27;;;;;;;11.70;6.03;;;10.70;55.50;;;;;;5022719;28;20422;-55
2024/03/09 10:27:59;;;;;;;195.50;100.43;;;10.70;53.90;;;;;;5047213;22;20995;-57
2024/03/09 10:30:26;;;;;;;9.20;6.23;;;10.80;53.90;;;;;;5040473;28;20415;-57
2024/03/09 10:32:56;;;;;;;9.90;6.37;;;10.90;54.80;;;;;;5043748;28;20851;-57
2024/03/09 10:35:25;;;;;;;8.80;6.53;;;11.10;54.60;;;;;;5042377;28;20438;-59
2024/03/09 10:37:55;;;;;;;10.77;6.20;;;11.20;54.20;;;;;;5040336;28;20440;-57
2024/03/09 10:40:25;;;;;;;12.00;7.30;;;11.40;53.00;;;;;;5041067;28;20933;-58
2024/03/09 10:42:53;;;;;;;13.03;6.30;;;11.60;53.00;;;;;;5038086;28;20458;-57
2024/03/09 10:45:21;;;;;;;11.37;6.40;;;11.70;52.10;;;;;;5041837;28;20487;-57
2024/03/09 10:47:50;;;;;;;10.23;6.43;;;11.80;52.40;;;;;;5040670;28;20537;-57
2024/03/09 10:50:27;;;;;;;12.07;7.63;;;11.90;52.20;;;;;;5038908;28;20414;-57
2024/03/09 10:53:09;;;;;;;9.70;6.03;;;12.10;51.60;;;;;;5038978;28;20731;-57
2024/03/09 10:56:04;;;;;;;9.47;5.63;;;12.20;51.00;;;;;;5042055;28;20501;-58
2024/03/09 10:58:32;;;;;;;10.47;4.93;;;12.40;51.10;;;;;;5024604;28;20468;-56
2024/03/09 11:00:59;;;;;;;11.20;5.77;;;12.50;48.70;;;;;;5044806;28;20428;-57
2024/03/09 11:03:26;;;;;;;9.90;6.00;;;12.50;48.10;;;;;;5024828;28;20460;-56
2024/03/09 11:05:53;;;;;;;9.37;5.83;;;12.60;48.60;;;;;;5042985;28;20939;-56
2024/03/09 11:08:22;;;;;;;8.23;5.53;;;12.70;48.80;;;;;;5042990;28;20448;-58
2024/03/09 11:10:49;;;;;;;10.20;5.40;;;12.80;48.00;;;;;;5039287;28;20434;-61
2024/03/09 11:13:18;;;;;;;7.60;4.70;;;12.90;48.70;;;;;;5042543;28;20434;-61
2024/03/09 11:15:51;;;;;;;7.00;5.10;;;13.10;48.80;;;;;;5041787;28;20444;-61
2024/03/09 11:18:19;;;;;;;13.47;6.13;;;13.30;47.80;;;;;;5045023;28;20943;-60
2024/03/09 11:20:52;;;;;;;8.60;5.40;;;13.30;47.50;;;;;;5041542;28;21013;-61
2024/03/09 11:23:22;;;;;;;10.93;5.63;;;13.30;47.10;;;;;;5046183;28;20477;-59
2024/03/09 11:25:51;;;;;;;12.60;6.20;;;13.20;47.70;;;;;;5041418;28;20521;-61
2024/03/09 11:28:17;;;;;;;10.53;6.30;;;13.20;47.70;;;;;;5043661;28;20449;-61
2024/03/09 11:31:10;;;;;;;9.67;5.93;;;13.20;47.90;;;;;;5043453;28;20421;-61
2024/03/09 11:33:44;;;;;;;9.30;5.67;;;13.40;48.40;;;;;;5041541;28;20409;-61
2024/03/09 11:36:50;;;;;;;13.37;7.00;;;13.60;48.00;;;;;;5043516;28;20923;-61
2024/03/09 11:39:17;;;;;;;10.40;6.63;;;13.80;47.20;;;;;;5021129;28;20947;-60
2024/03/09 11:41:48;;;;;;;11.30;6.50;;;13.90;46.30;;;;;;5044813;28;20441;-60
2024/03/09 11:44:17;;;;;;;12.00;4.90;;;13.90;46.80;;;;;;5044294;28;20426;-59
2024/03/09 11:46:42;;;;;;;8.10;5.83;;;13.90;46.90;;;;;;5037474;28;20519;-60
2024/03/09 11:49:08;;;;;;;9.10;6.30;;;13.80;46.80;;;;;;5042012;28;20524;-60
2024/03/09 11:51:35;;;;;;;10.90;5.90;;;13.80;47.20;;;;;;5045136;28;20167;-61
2024/03/09 11:54:06;;;;;;;10.00;5.77;;;13.70;47.20;;;;;;5043571;28;20238;-61
2024/03/09 11:56:32;;;;;;;10.10;6.20;;;13.70;47.30;;;;;;5039632;28;20426;-60
2024/03/09 11:58:58;;;;;;;14.50;6.73;;;13.60;47.00;;;;;;5039711;28;20442;-61
2024/03/09 12:01:24;;;;;;;10.70;6.53;;;13.60;47.30;;;;;;5044876;28;20504;-60
2024/03/09 12:03:51;;;;;;;10.37;6.50;;;13.50;47.50;;;;;;5041767;28;20562;-60
2024/03/09 12:06:17;;;;;;;8.90;6.00;;;13.60;47.80;;;;;;5042793;28;20585;-60
2024/03/09 12:08:43;;;;;;;10.77;7.23;;;13.90;47.80;;;;;;5039158;28;20439;-61
2024/03/09 12:11:09;;;;;;;9.57;6.73;;;14.20;47.00;;;;;;5042464;28;20417;-60
2024/03/09 12:13:35;;;;;;;10.70;6.90;;;14.40;46.80;;;;;;5041001;28;20271;-61
2024/03/09 12:16:03;;;;;;;15.77;7.00;;;14.40;46.50;;;;;;5045304;28;20242;-61
2024/03/09 12:18:30;;;;;;;11.53;7.43;;;14.50;47.30;;;;;;5042996;28;20676;-62
2024/03/09 12:20:56;;;;;;;12.60;7.63;;;14.50;48.10;;;;;;5042070;28;20952;-62
2024/03/09 12:23:24;;;;;;;10.10;6.73;;;14.50;48.30;;;;;;5044798;28;20870;-61
2024/03/09 12:25:50;;;;;;;9.83;6.80;;;14.60;48.80;;;;;;5044031;28;20515;-61
2024/03/09 12:28:19;;;;;;;10.10;7.10;;;14.60;47.80;;;;;;5041869;28;20437;-62
2024/03/09 12:30:51;;;;;;;12.80;7.30;;;14.80;47.60;;;;;;5041220;28;20441;-62
2024/03/09 12:33:17;;;;;;;13.20;7.83;;;15.00;48.40;;;;;;5041412;28;20500;-61
2024/03/09 12:35:46;;;;;;;12.73;7.13;;;15.20;47.80;;;;;;5042921;28;20488;-60
2024/03/09 12:38:15;;;;;;;10.87;7.40;;;15.30;47.60;;;;;;5040737;28;20191;-61
2024/03/09 12:40:46;;;;;;;10.80;6.73;;;15.20;47.80;;;;;;5042726;28;20492;-61